Field WX: KFPK 031541Z AUTO 25008KT 10SM CLR 06/00 A2989 RMK AO2 Decode METAR

YouTube! Facebook

JSN Epic is designed by JoomlaShine.com